sensor_id;sensor_type;location;lat;lon;timestamp;P1;durP1;ratioP1;P2;durP2;ratioP2
35877;SDS011;21982;49.804;24.072;2023-09-07T00:00:51;17.35;;;9.20;;
35877;SDS011;21982;49.804;24.072;2023-09-07T00:03:17;19.23;;;8.77;;
35877;SDS011;21982;49.804;24.072;2023-09-07T00:05:42;14.18;;;7.13;;
35877;SDS011;21982;49.804;24.072;2023-09-07T00:08:07;15.88;;;7.43;;
35877;SDS011;21982;49.804;24.072;2023-09-07T00:10:33;13.25;;;6.72;;
35877;SDS011;21982;49.804;24.072;2023-09-07T00:13:00;21.42;;;7.50;;
35877;SDS011;21982;49.804;24.072;2023-09-07T00:15:27;11.63;;;7.22;;
35877;SDS011;21982;49.804;24.072;2023-09-07T00:17:53;12.60;;;6.80;;
35877;SDS011;21982;49.804;24.072;2023-09-07T00:20:19;12.60;;;6.57;;
35877;SDS011;21982;49.804;24.072;2023-09-07T00:22:46;13.02;;;6.47;;
35877;SDS011;21982;49.804;24.072;2023-09-07T00:25:11;10.80;;;5.85;;
35877;SDS011;21982;49.804;24.072;2023-09-07T00:27:36;12.88;;;6.93;;
35877;SDS011;21982;49.804;24.072;2023-09-07T00:30:02;12.05;;;6.03;;
35877;SDS011;21982;49.804;24.072;2023-09-07T00:32:32;13.20;;;6.40;;
35877;SDS011;21982;49.804;24.072;2023-09-07T00:34:58;12.13;;;6.65;;
35877;SDS011;21982;49.804;24.072;2023-09-07T00:37:24;13.95;;;7.28;;
35877;SDS011;21982;49.804;24.072;2023-09-07T00:39:49;14.38;;;6.88;;
35877;SDS011;21982;49.804;24.072;2023-09-07T00:42:15;13.55;;;6.40;;
35877;SDS011;21982;49.804;24.072;2023-09-07T00:44:41;15.05;;;7.45;;
35877;SDS011;21982;49.804;24.072;2023-09-07T00:47:06;18.75;;;7.85;;
35877;SDS011;21982;49.804;24.072;2023-09-07T00:49:31;14.82;;;6.47;;
35877;SDS011;21982;49.804;24.072;2023-09-07T00:51:57;14.82;;;8.43;;
35877;SDS011;21982;49.804;24.072;2023-09-07T00:54:22;16.02;;;8.77;;
35877;SDS011;21982;49.804;24.072;2023-09-07T00:56:48;18.00;;;8.77;;
35877;SDS011;21982;49.804;24.072;2023-09-07T00:59:14;13.95;;;8.13;;
35877;SDS011;21982;49.804;24.072;2023-09-07T01:01:39;18.65;;;7.93;;
35877;SDS011;21982;49.804;24.072;2023-09-07T01:04:06;14.88;;;8.75;;
35877;SDS011;21982;49.804;24.072;2023-09-07T01:06:32;14.90;;;8.38;;
35877;SDS011;21982;49.804;24.072;2023-09-07T01:09:14;13.02;;;7.88;;
35877;SDS011;21982;49.804;24.072;2023-09-07T01:11:42;12.55;;;6.75;;
35877;SDS011;21982;49.804;24.072;2023-09-07T01:14:08;16.23;;;8.38;;
35877;SDS011;21982;49.804;24.072;2023-09-07T01:16:35;17.20;;;8.65;;
35877;SDS011;21982;49.804;24.072;2023-09-07T01:19:03;15.63;;;8.05;;
35877;SDS011;21982;49.804;24.072;2023-09-07T01:21:34;15.43;;;8.20;;
35877;SDS011;21982;49.804;24.072;2023-09-07T01:24:01;18.48;;;8.50;;
35877;SDS011;21982;49.804;24.072;2023-09-07T01:26:29;14.27;;;8.35;;
35877;SDS011;21982;49.804;24.072;2023-09-07T01:28:55;21.85;;;9.05;;
35877;SDS011;21982;49.804;24.072;2023-09-07T01:31:21;21.73;;;10.73;;
35877;SDS011;21982;49.804;24.072;2023-09-07T01:33:46;21.10;;;12.27;;
35877;SDS011;21982;49.804;24.072;2023-09-07T01:36:12;27.95;;;15.40;;
35877;SDS011;21982;49.804;24.072;2023-09-07T01:38:37;28.00;;;16.58;;
35877;SDS011;21982;49.804;24.072;2023-09-07T01:41:03;34.45;;;21.33;;
35877;SDS011;21982;49.804;24.072;2023-09-07T01:43:28;38.47;;;23.95;;
35877;SDS011;21982;49.804;24.072;2023-09-07T01:45:53;35.85;;;20.20;;
35877;SDS011;21982;49.804;24.072;2023-09-07T01:48:19;24.27;;;14.30;;
35877;SDS011;21982;49.804;24.072;2023-09-07T01:50:44;29.98;;;13.50;;
35877;SDS011;21982;49.804;24.072;2023-09-07T01:53:09;27.00;;;11.68;;
35877;SDS011;21982;49.804;24.072;2023-09-07T01:55:35;21.55;;;12.15;;
35877;SDS011;21982;49.804;24.072;2023-09-07T01:58:00;23.83;;;13.52;;
35877;SDS011;21982;49.804;24.072;2023-09-07T02:00:26;20.25;;;12.20;;
35877;SDS011;21982;49.804;24.072;2023-09-07T02:02:51;21.70;;;11.10;;
35877;SDS011;21982;49.804;24.072;2023-09-07T02:05:16;24.80;;;12.30;;
35877;SDS011;21982;49.804;24.072;2023-09-07T02:07:43;21.48;;;11.70;;
35877;SDS011;21982;49.804;24.072;2023-09-07T02:10:08;20.48;;;10.63;;
35877;SDS011;21982;49.804;24.072;2023-09-07T02:12:34;19.80;;;11.23;;
35877;SDS011;21982;49.804;24.072;2023-09-07T02:15:00;19.63;;;9.43;;
35877;SDS011;21982;49.804;24.072;2023-09-07T02:17:27;22.17;;;10.63;;
35877;SDS011;21982;49.804;24.072;2023-09-07T02:19:53;19.77;;;9.57;;
35877;SDS011;21982;49.804;24.072;2023-09-07T02:22:18;22.00;;;10.43;;
35877;SDS011;21982;49.804;24.072;2023-09-07T02:24:44;20.05;;;10.00;;
35877;SDS011;21982;49.804;24.072;2023-09-07T02:27:09;18.50;;;10.95;;
35877;SDS011;21982;49.804;24.072;2023-09-07T02:29:34;23.50;;;10.38;;
35877;SDS011;21982;49.804;24.072;2023-09-07T02:32:00;20.60;;;10.38;;
35877;SDS011;21982;49.804;24.072;2023-09-07T02:34:27;17.70;;;9.50;;
35877;SDS011;21982;49.804;24.072;2023-09-07T02:36:52;17.88;;;9.18;;
35877;SDS011;21982;49.804;24.072;2023-09-07T02:39:18;18.40;;;8.77;;
35877;SDS011;21982;49.804;24.072;2023-09-07T02:41:43;20.00;;;10.10;;
35877;SDS011;21982;49.804;24.072;2023-09-07T02:44:10;15.75;;;9.38;;
35877;SDS011;21982;49.804;24.072;2023-09-07T02:46:35;16.38;;;8.95;;
35877;SDS011;21982;49.804;24.072;2023-09-07T02:49:01;15.80;;;8.80;;
35877;SDS011;21982;49.804;24.072;2023-09-07T02:51:26;17.42;;;9.35;;
35877;SDS011;21982;49.804;24.072;2023-09-07T02:53:53;18.40;;;10.93;;
35877;SDS011;21982;49.804;24.072;2023-09-07T02:56:21;17.95;;;9.48;;
35877;SDS011;21982;49.804;24.072;2023-09-07T02:58:46;20.50;;;10.40;;
35877;SDS011;21982;49.804;24.072;2023-09-07T03:01:12;17.77;;;9.95;;
35877;SDS011;21982;49.804;24.072;2023-09-07T03:03:38;17.50;;;10.65;;
35877;SDS011;21982;49.804;24.072;2023-09-07T03:06:09;17.30;;;10.23;;
35877;SDS011;21982;49.804;24.072;2023-09-07T03:08:36;18.30;;;10.60;;
35877;SDS011;21982;49.804;24.072;2023-09-07T03:11:04;18.58;;;10.60;;
35877;SDS011;21982;49.804;24.072;2023-09-07T03:13:31;22.33;;;11.35;;
35877;SDS011;21982;49.804;24.072;2023-09-07T03:15:56;19.05;;;10.40;;
35877;SDS011;21982;49.804;24.072;2023-09-07T03:18:22;18.38;;;11.40;;
35877;SDS011;21982;49.804;24.072;2023-09-07T03:20:47;22.25;;;10.55;;
35877;SDS011;21982;49.804;24.072;2023-09-07T03:23:14;22.50;;;11.70;;
35877;SDS011;21982;49.804;24.072;2023-09-07T03:25:39;24.58;;;12.20;;
35877;SDS011;21982;49.804;24.072;2023-09-07T03:28:05;20.05;;;12.27;;
35877;SDS011;21982;49.804;24.072;2023-09-07T03:30:31;21.35;;;11.55;;
35877;SDS011;21982;49.804;24.072;2023-09-07T03:32:57;20.35;;;11.65;;
35877;SDS011;21982;49.804;24.072;2023-09-07T03:35:22;23.48;;;11.70;;
35877;SDS011;21982;49.804;24.072;2023-09-07T03:37:48;23.77;;;13.00;;
35877;SDS011;21982;49.804;24.072;2023-09-07T03:40:13;25.30;;;12.73;;
35877;SDS011;21982;49.804;24.072;2023-09-07T03:42:40;16.52;;;9.95;;
35877;SDS011;21982;49.804;24.072;2023-09-07T03:45:06;19.95;;;11.07;;
35877;SDS011;21982;49.804;24.072;2023-09-07T03:47:32;21.48;;;9.90;;
35877;SDS011;21982;49.804;24.072;2023-09-07T03:49:58;18.92;;;10.57;;
35877;SDS011;21982;49.804;24.072;2023-09-07T03:52:24;27.48;;;15.45;;
35877;SDS011;21982;49.804;24.072;2023-09-07T03:54:51;26.00;;;14.15;;
35877;SDS011;21982;49.804;24.072;2023-09-07T03:57:18;28.30;;;18.50;;
35877;SDS011;21982;49.804;24.072;2023-09-07T03:59:44;28.83;;;16.58;;
35877;SDS011;21982;49.804;24.072;2023-09-07T04:02:10;30.27;;;15.90;;
35877;SDS011;21982;49.804;24.072;2023-09-07T04:04:35;25.23;;;15.75;;
35877;SDS011;21982;49.804;24.072;2023-09-07T04:07:01;26.05;;;16.00;;
35877;SDS011;21982;49.804;24.072;2023-09-07T04:09:26;26.73;;;16.42;;
35877;SDS011;21982;49.804;24.072;2023-09-07T04:11:52;20.15;;;12.60;;
35877;SDS011;21982;49.804;24.072;2023-09-07T04:14:17;23.80;;;13.88;;
35877;SDS011;21982;49.804;24.072;2023-09-07T04:16:42;25.17;;;15.07;;
35877;SDS011;21982;49.804;24.072;2023-09-07T04:19:08;27.15;;;14.23;;
35877;SDS011;21982;49.804;24.072;2023-09-07T04:21:35;27.75;;;15.65;;
35877;SDS011;21982;49.804;24.072;2023-09-07T04:24:01;23.67;;;14.55;;
35877;SDS011;21982;49.804;24.072;2023-09-07T04:26:27;26.05;;;14.25;;
35877;SDS011;21982;49.804;24.072;2023-09-07T04:28:58;28.02;;;15.15;;
35877;SDS011;21982;49.804;24.072;2023-09-07T04:31:23;27.20;;;15.70;;
35877;SDS011;21982;49.804;24.072;2023-09-07T04:33:53;27.77;;;13.93;;
35877;SDS011;21982;49.804;24.072;2023-09-07T04:36:19;25.55;;;14.55;;
35877;SDS011;21982;49.804;24.072;2023-09-07T04:38:44;21.92;;;12.10;;
35877;SDS011;21982;49.804;24.072;2023-09-07T04:41:11;21.50;;;12.82;;
35877;SDS011;21982;49.804;24.072;2023-09-07T04:43:38;23.67;;;11.75;;
35877;SDS011;21982;49.804;24.072;2023-09-07T04:46:05;19.73;;;11.27;;
35877;SDS011;21982;49.804;24.072;2023-09-07T04:48:32;19.15;;;10.68;;
35877;SDS011;21982;49.804;24.072;2023-09-07T04:51:02;20.30;;;11.57;;
35877;SDS011;21982;49.804;24.072;2023-09-07T04:53:44;19.27;;;11.43;;
35877;SDS011;21982;49.804;24.072;2023-09-07T04:56:10;21.52;;;9.30;;
35877;SDS011;21982;49.804;24.072;2023-09-07T04:58:35;19.95;;;10.43;;
35877;SDS011;21982;49.804;24.072;2023-09-07T05:01:02;22.67;;;11.40;;
35877;SDS011;21982;49.804;24.072;2023-09-07T05:03:31;21.60;;;9.93;;
35877;SDS011;21982;49.804;24.072;2023-09-07T05:05:57;19.25;;;9.30;;
35877;SDS011;21982;49.804;24.072;2023-09-07T05:08:24;24.98;;;12.43;;
35877;SDS011;21982;49.804;24.072;2023-09-07T05:10:56;18.60;;;9.75;;
35877;SDS011;21982;49.804;24.072;2023-09-07T05:13:24;16.33;;;9.00;;
35877;SDS011;21982;49.804;24.072;2023-09-07T05:15:51;20.48;;;10.73;;
35877;SDS011;21982;49.804;24.072;2023-09-07T05:18:21;20.27;;;9.60;;
35877;SDS011;21982;49.804;24.072;2023-09-07T05:20:47;21.40;;;9.65;;
35877;SDS011;21982;49.804;24.072;2023-09-07T05:23:19;21.80;;;9.27;;
35877;SDS011;21982;49.804;24.072;2023-09-07T05:25:46;19.25;;;9.38;;
35877;SDS011;21982;49.804;24.072;2023-09-07T05:28:17;23.27;;;10.18;;
35877;SDS011;21982;49.804;24.072;2023-09-07T05:30:43;23.02;;;9.85;;
35877;SDS011;21982;49.804;24.072;2023-09-07T05:33:09;21.63;;;10.35;;
35877;SDS011;21982;49.804;24.072;2023-09-07T05:35:36;22.35;;;9.32;;
35877;SDS011;21982;49.804;24.072;2023-09-07T05:38:02;27.63;;;11.40;;
35877;SDS011;21982;49.804;24.072;2023-09-07T05:40:28;21.75;;;10.43;;
35877;SDS011;21982;49.804;24.072;2023-09-07T05:42:53;20.55;;;9.98;;
35877;SDS011;21982;49.804;24.072;2023-09-07T05:45:19;15.63;;;9.90;;
35877;SDS011;21982;49.804;24.072;2023-09-07T05:47:44;30.35;;;12.48;;
35877;SDS011;21982;49.804;24.072;2023-09-07T05:50:11;19.75;;;10.35;;
35877;SDS011;21982;49.804;24.072;2023-09-07T05:52:37;20.45;;;11.00;;
35877;SDS011;21982;49.804;24.072;2023-09-07T05:55:02;19.92;;;10.57;;
35877;SDS011;21982;49.804;24.072;2023-09-07T05:57:28;18.20;;;10.77;;
35877;SDS011;21982;49.804;24.072;2023-09-07T05:59:53;17.67;;;9.35;;
35877;SDS011;21982;49.804;24.072;2023-09-07T06:02:18;15.95;;;9.30;;
35877;SDS011;21982;49.804;24.072;2023-09-07T06:04:44;16.95;;;8.30;;
35877;SDS011;21982;49.804;24.072;2023-09-07T06:07:09;15.68;;;8.32;;
35877;SDS011;21982;49.804;24.072;2023-09-07T06:09:35;15.13;;;7.53;;
35877;SDS011;21982;49.804;24.072;2023-09-07T06:12:01;12.32;;;7.00;;
35877;SDS011;21982;49.804;24.072;2023-09-07T06:14:28;16.67;;;9.52;;
35877;SDS011;21982;49.804;24.072;2023-09-07T06:16:53;18.02;;;8.82;;
35877;SDS011;21982;49.804;24.072;2023-09-07T06:19:18;19.15;;;8.30;;
35877;SDS011;21982;49.804;24.072;2023-09-07T06:21:44;17.90;;;9.18;;
35877;SDS011;21982;49.804;24.072;2023-09-07T06:24:10;19.73;;;9.07;;
35877;SDS011;21982;49.804;24.072;2023-09-07T06:26:35;18.40;;;9.77;;
35877;SDS011;21982;49.804;24.072;2023-09-07T06:29:01;14.73;;;9.02;;
35877;SDS011;21982;49.804;24.072;2023-09-07T06:31:26;17.55;;;7.90;;
35877;SDS011;21982;49.804;24.072;2023-09-07T06:33:52;17.98;;;8.13;;
35877;SDS011;21982;49.804;24.072;2023-09-07T06:36:17;15.25;;;8.10;;
35877;SDS011;21982;49.804;24.072;2023-09-07T06:38:44;18.77;;;8.98;;
35877;SDS011;21982;49.804;24.072;2023-09-07T06:41:09;19.67;;;8.15;;
35877;SDS011;21982;49.804;24.072;2023-09-07T06:43:35;12.35;;;6.88;;
35877;SDS011;21982;49.804;24.072;2023-09-07T06:46:10;17.38;;;7.75;;
35877;SDS011;21982;49.804;24.072;2023-09-07T06:48:35;15.43;;;8.80;;
35877;SDS011;21982;49.804;24.072;2023-09-07T06:51:04;17.08;;;8.27;;
35877;SDS011;21982;49.804;24.072;2023-09-07T06:53:30;17.90;;;8.70;;
35877;SDS011;21982;49.804;24.072;2023-09-07T06:56:00;15.52;;;7.55;;
35877;SDS011;21982;49.804;24.072;2023-09-07T06:58:28;14.52;;;8.57;;
35877;SDS011;21982;49.804;24.072;2023-09-07T07:00:57;18.05;;;8.95;;
35877;SDS011;21982;49.804;24.072;2023-09-07T07:03:26;12.30;;;6.65;;
35877;SDS011;21982;49.804;24.072;2023-09-07T07:05:52;16.65;;;6.20;;
35877;SDS011;21982;49.804;24.072;2023-09-07T07:08:17;9.27;;;4.97;;
35877;SDS011;21982;49.804;24.072;2023-09-07T07:10:43;9.93;;;4.93;;
35877;SDS011;21982;49.804;24.072;2023-09-07T07:13:08;7.47;;;4.05;;
35877;SDS011;21982;49.804;24.072;2023-09-07T07:15:34;9.75;;;4.65;;
35877;SDS011;21982;49.804;24.072;2023-09-07T07:18:00;12.07;;;5.50;;
35877;SDS011;21982;49.804;24.072;2023-09-07T07:20:26;10.18;;;6.13;;
35877;SDS011;21982;49.804;24.072;2023-09-07T07:22:52;12.10;;;5.03;;
35877;SDS011;21982;49.804;24.072;2023-09-07T07:25:17;8.52;;;4.63;;
35877;SDS011;21982;49.804;24.072;2023-09-07T07:27:43;10.02;;;4.70;;
35877;SDS011;21982;49.804;24.072;2023-09-07T07:30:10;9.50;;;6.00;;
35877;SDS011;21982;49.804;24.072;2023-09-07T07:32:35;13.48;;;6.15;;
35877;SDS011;21982;49.804;24.072;2023-09-07T07:35:01;15.32;;;5.68;;
35877;SDS011;21982;49.804;24.072;2023-09-07T07:37:26;11.40;;;6.30;;
35877;SDS011;21982;49.804;24.072;2023-09-07T07:39:52;10.82;;;6.15;;
35877;SDS011;21982;49.804;24.072;2023-09-07T07:42:18;10.13;;;6.10;;
35877;SDS011;21982;49.804;24.072;2023-09-07T07:44:46;10.10;;;5.97;;
35877;SDS011;21982;49.804;24.072;2023-09-07T07:47:12;11.98;;;5.95;;
35877;SDS011;21982;49.804;24.072;2023-09-07T07:49:39;12.73;;;5.32;;
35877;SDS011;21982;49.804;24.072;2023-09-07T07:52:05;10.20;;;5.05;;
35877;SDS011;21982;49.804;24.072;2023-09-07T07:54:32;9.43;;;5.70;;
35877;SDS011;21982;49.804;24.072;2023-09-07T07:56:59;12.18;;;6.32;;
35877;SDS011;21982;49.804;24.072;2023-09-07T07:59:24;11.25;;;6.18;;
35877;SDS011;21982;49.804;24.072;2023-09-07T08:01:49;11.27;;;7.07;;
35877;SDS011;21982;49.804;24.072;2023-09-07T08:04:15;10.02;;;6.25;;
35877;SDS011;21982;49.804;24.072;2023-09-07T08:06:40;10.75;;;6.45;;
35877;SDS011;21982;49.804;24.072;2023-09-07T08:09:05;10.05;;;5.90;;
35877;SDS011;21982;49.804;24.072;2023-09-07T08:11:31;10.43;;;7.03;;
35877;SDS011;21982;49.804;24.072;2023-09-07T08:13:56;10.48;;;6.18;;
35877;SDS011;21982;49.804;24.072;2023-09-07T08:16:24;13.85;;;6.22;;
35877;SDS011;21982;49.804;24.072;2023-09-07T08:18:49;9.65;;;4.78;;
35877;SDS011;21982;49.804;24.072;2023-09-07T08:21:15;9.52;;;5.55;;
35877;SDS011;21982;49.804;24.072;2023-09-07T08:23:41;8.93;;;5.43;;
35877;SDS011;21982;49.804;24.072;2023-09-07T08:26:06;11.65;;;5.05;;
35877;SDS011;21982;49.804;24.072;2023-09-07T08:28:34;10.00;;;5.60;;
35877;SDS011;21982;49.804;24.072;2023-09-07T08:30:59;9.60;;;5.10;;
35877;SDS011;21982;49.804;24.072;2023-09-07T08:33:25;8.85;;;5.25;;
35877;SDS011;21982;49.804;24.072;2023-09-07T08:35:55;8.52;;;4.72;;
35877;SDS011;21982;49.804;24.072;2023-09-07T08:38:21;8.02;;;4.40;;
35877;SDS011;21982;49.804;24.072;2023-09-07T08:40:49;7.60;;;4.00;;
35877;SDS011;21982;49.804;24.072;2023-09-07T08:43:16;8.38;;;4.90;;
35877;SDS011;21982;49.804;24.072;2023-09-07T08:45:46;10.05;;;5.40;;
35877;SDS011;21982;49.804;24.072;2023-09-07T08:48:17;12.23;;;5.22;;
35877;SDS011;21982;49.804;24.072;2023-09-07T08:50:44;8.80;;;5.05;;
35877;SDS011;21982;49.804;24.072;2023-09-07T08:53:15;11.23;;;5.05;;
35877;SDS011;21982;49.804;24.072;2023-09-07T08:55:47;11.02;;;5.22;;
35877;SDS011;21982;49.804;24.072;2023-09-07T08:58:13;8.90;;;5.00;;
35877;SDS011;21982;49.804;24.072;2023-09-07T09:00:39;10.23;;;5.57;;
35877;SDS011;21982;49.804;24.072;2023-09-07T09:03:08;8.48;;;4.60;;
35877;SDS011;21982;49.804;24.072;2023-09-07T09:05:34;8.30;;;4.50;;
35877;SDS011;21982;49.804;24.072;2023-09-07T09:08:01;9.30;;;4.25;;
35877;SDS011;21982;49.804;24.072;2023-09-07T09:10:28;10.77;;;4.80;;
35877;SDS011;21982;49.804;24.072;2023-09-07T09:12:53;7.63;;;4.32;;
35877;SDS011;21982;49.804;24.072;2023-09-07T09:15:18;9.55;;;4.10;;
35877;SDS011;21982;49.804;24.072;2023-09-07T09:17:44;12.65;;;4.40;;
35877;SDS011;21982;49.804;24.072;2023-09-07T09:20:22;9.40;;;4.68;;
35877;SDS011;21982;49.804;24.072;2023-09-07T09:22:52;8.82;;;3.65;;
35877;SDS011;21982;49.804;24.072;2023-09-07T09:25:19;7.00;;;4.03;;
35877;SDS011;21982;49.804;24.072;2023-09-07T09:27:46;8.82;;;4.35;;
35877;SDS011;21982;49.804;24.072;2023-09-07T09:30:12;9.85;;;4.40;;
35877;SDS011;21982;49.804;24.072;2023-09-07T09:32:40;7.47;;;3.40;;
35877;SDS011;21982;49.804;24.072;2023-09-07T09:35:06;4.88;;;2.75;;
35877;SDS011;21982;49.804;24.072;2023-09-07T09:37:33;6.32;;;4.03;;
35877;SDS011;21982;49.804;24.072;2023-09-07T09:39:59;5.40;;;3.42;;
35877;SDS011;21982;49.804;24.072;2023-09-07T09:42:27;7.63;;;3.50;;
35877;SDS011;21982;49.804;24.072;2023-09-07T09:44:52;7.38;;;3.60;;
35877;SDS011;21982;49.804;24.072;2023-09-07T09:47:21;8.15;;;3.45;;
35877;SDS011;21982;49.804;24.072;2023-09-07T09:49:47;7.13;;;3.97;;
35877;SDS011;21982;49.804;24.072;2023-09-07T09:52:15;5.70;;;3.40;;
35877;SDS011;21982;49.804;24.072;2023-09-07T09:54:41;7.13;;;3.65;;
35877;SDS011;21982;49.804;24.072;2023-09-07T09:57:08;7.35;;;3.63;;
35877;SDS011;21982;49.804;24.072;2023-09-07T09:59:33;7.63;;;3.83;;
35877;SDS011;21982;49.804;24.072;2023-09-07T10:01:59;7.28;;;3.83;;
35877;SDS011;21982;49.804;24.072;2023-09-07T10:04:27;6.13;;;3.40;;
35877;SDS011;21982;49.804;24.072;2023-09-07T10:06:55;6.22;;;3.40;;
35877;SDS011;21982;49.804;24.072;2023-09-07T10:09:21;6.88;;;3.63;;
35877;SDS011;21982;49.804;24.072;2023-09-07T10:11:53;6.13;;;3.40;;
35877;SDS011;21982;49.804;24.072;2023-09-07T10:14:19;6.88;;;3.70;;
35877;SDS011;21982;49.804;24.072;2023-09-07T10:16:46;7.53;;;3.80;;
35877;SDS011;21982;49.804;24.072;2023-09-07T10:19:22;7.40;;;3.80;;
35877;SDS011;21982;49.804;24.072;2023-09-07T10:21:50;7.38;;;3.22;;
35877;SDS011;21982;49.804;24.072;2023-09-07T10:24:28;7.28;;;3.50;;
35877;SDS011;21982;49.804;24.072;2023-09-07T10:27:05;7.38;;;3.35;;
35877;SDS011;21982;49.804;24.072;2023-09-07T10:29:50;6.63;;;2.95;;
35877;SDS011;21982;49.804;24.072;2023-09-07T10:32:19;5.65;;;3.67;;
35877;SDS011;21982;49.804;24.072;2023-09-07T10:34:44;6.20;;;3.40;;
35877;SDS011;21982;49.804;24.072;2023-09-07T10:37:10;9.73;;;3.83;;
35877;SDS011;21982;49.804;24.072;2023-09-07T10:39:38;5.20;;;2.85;;
35877;SDS011;21982;49.804;24.072;2023-09-07T10:42:04;6.55;;;3.05;;
35877;SDS011;21982;49.804;24.072;2023-09-07T10:44:30;6.55;;;2.85;;
35877;SDS011;21982;49.804;24.072;2023-09-07T10:46:58;6.97;;;3.03;;
35877;SDS011;21982;49.804;24.072;2023-09-07T10:49:25;4.82;;;2.72;;
35877;SDS011;21982;49.804;24.072;2023-09-07T10:51:51;6.75;;;2.75;;
35877;SDS011;21982;49.804;24.072;2023-09-07T10:54:17;4.55;;;2.47;;
35877;SDS011;21982;49.804;24.072;2023-09-07T10:56:44;6.82;;;2.53;;
35877;SDS011;21982;49.804;24.072;2023-09-07T10:59:11;5.70;;;2.53;;
35877;SDS011;21982;49.804;24.072;2023-09-07T11:01:38;7.13;;;3.45;;
35877;SDS011;21982;49.804;24.072;2023-09-07T11:04:04;6.95;;;2.70;;
35877;SDS011;21982;49.804;24.072;2023-09-07T11:06:33;4.22;;;2.70;;
35877;SDS011;21982;49.804;24.072;2023-09-07T11:08:59;6.35;;;2.92;;
35877;SDS011;21982;49.804;24.072;2023-09-07T11:11:26;6.20;;;2.50;;
35877;SDS011;21982;49.804;24.072;2023-09-07T11:13:52;5.97;;;3.00;;
35877;SDS011;21982;49.804;24.072;2023-09-07T11:16:17;7.85;;;2.78;;
35877;SDS011;21982;49.804;24.072;2023-09-07T11:18:42;5.35;;;2.80;;
35877;SDS011;21982;49.804;24.072;2023-09-07T11:21:09;4.18;;;2.38;;
35877;SDS011;21982;49.804;24.072;2023-09-07T11:23:35;4.60;;;2.83;;
35877;SDS011;21982;49.804;24.072;2023-09-07T11:26:12;6.18;;;3.35;;
35877;SDS011;21982;49.804;24.072;2023-09-07T11:28:38;9.43;;;3.47;;
35877;SDS011;21982;49.804;24.072;2023-09-07T11:31:04;7.05;;;3.10;;
35877;SDS011;21982;49.804;24.072;2023-09-07T11:33:32;5.10;;;2.75;;
35877;SDS011;21982;49.804;24.072;2023-09-07T11:35:58;7.05;;;3.20;;
35877;SDS011;21982;49.804;24.072;2023-09-07T11:38:28;6.50;;;3.03;;
35877;SDS011;21982;49.804;24.072;2023-09-07T11:40:59;5.32;;;2.85;;
35877;SDS011;21982;49.804;24.072;2023-09-07T11:43:25;8.68;;;3.90;;
35877;SDS011;21982;49.804;24.072;2023-09-07T11:45:50;10.00;;;3.60;;
35877;SDS011;21982;49.804;24.072;2023-09-07T11:48:15;5.05;;;2.55;;
35877;SDS011;21982;49.804;24.072;2023-09-07T11:50:41;6.10;;;3.28;;
35877;SDS011;21982;49.804;24.072;2023-09-07T11:53:07;7.35;;;2.92;;
35877;SDS011;21982;49.804;24.072;2023-09-07T11:55:33;6.15;;;2.85;;
35877;SDS011;21982;49.804;24.072;2023-09-07T11:57:59;6.32;;;3.33;;
35877;SDS011;21982;49.804;24.072;2023-09-07T12:00:25;6.60;;;3.17;;
35877;SDS011;21982;49.804;24.072;2023-09-07T12:02:50;4.38;;;2.83;;
35877;SDS011;21982;49.804;24.072;2023-09-07T12:05:16;9.57;;;2.80;;
35877;SDS011;21982;49.804;24.072;2023-09-07T12:07:43;6.60;;;3.17;;
35877;SDS011;21982;49.804;24.072;2023-09-07T12:10:08;6.90;;;3.35;;
35877;SDS011;21982;49.804;24.072;2023-09-07T12:12:38;5.85;;;2.95;;
35877;SDS011;21982;49.804;24.072;2023-09-07T12:15:06;8.48;;;3.55;;
35877;SDS011;21982;49.804;24.072;2023-09-07T12:17:33;10.55;;;4.00;;
35877;SDS011;21982;49.804;24.072;2023-09-07T12:19:59;8.65;;;3.75;;
35877;SDS011;21982;49.804;24.072;2023-09-07T12:22:27;9.95;;;3.35;;
35877;SDS011;21982;49.804;24.072;2023-09-07T12:24:52;8.70;;;3.20;;
35877;SDS011;21982;49.804;24.072;2023-09-07T12:27:18;7.35;;;3.40;;
35877;SDS011;21982;49.804;24.072;2023-09-07T12:29:44;6.60;;;2.72;;
35877;SDS011;21982;49.804;24.072;2023-09-07T12:32:09;8.90;;;2.97;;
35877;SDS011;21982;49.804;24.072;2023-09-07T12:34:35;8.50;;;3.30;;
35877;SDS011;21982;49.804;24.072;2023-09-07T12:37:01;4.93;;;2.75;;
35877;SDS011;21982;49.804;24.072;2023-09-07T12:39:28;6.82;;;2.97;;
35877;SDS011;21982;49.804;24.072;2023-09-07T12:41:54;7.95;;;3.47;;
35877;SDS011;21982;49.804;24.072;2023-09-07T12:44:19;7.50;;;3.15;;
35877;SDS011;21982;49.804;24.072;2023-09-07T12:46:46;6.43;;;3.13;;
35877;SDS011;21982;49.804;24.072;2023-09-07T12:49:11;7.05;;;3.45;;
35877;SDS011;21982;49.804;24.072;2023-09-07T12:51:36;6.95;;;3.40;;
35877;SDS011;21982;49.804;24.072;2023-09-07T12:54:02;7.95;;;3.80;;
35877;SDS011;21982;49.804;24.072;2023-09-07T12:56:28;12.90;;;6.15;;
35877;SDS011;21982;49.804;24.072;2023-09-07T12:58:53;14.18;;;7.05;;
35877;SDS011;21982;49.804;24.072;2023-09-07T13:01:19;10.77;;;4.68;;
35877;SDS011;21982;49.804;24.072;2023-09-07T13:03:44;6.75;;;3.22;;
35877;SDS011;21982;49.804;24.072;2023-09-07T13:06:10;13.30;;;3.58;;
35877;SDS011;21982;49.804;24.072;2023-09-07T13:08:36;10.32;;;3.60;;
35877;SDS011;21982;49.804;24.072;2023-09-07T13:11:01;8.07;;;3.25;;
35877;SDS011;21982;49.804;24.072;2023-09-07T13:13:26;4.60;;;2.97;;
35877;SDS011;21982;49.804;24.072;2023-09-07T13:15:54;4.85;;;2.45;;
35877;SDS011;21982;49.804;24.072;2023-09-07T13:18:23;5.10;;;2.75;;
35877;SDS011;21982;49.804;24.072;2023-09-07T13:20:49;5.57;;;2.80;;
35877;SDS011;21982;49.804;24.072;2023-09-07T13:23:24;4.93;;;2.47;;
35877;SDS011;21982;49.804;24.072;2023-09-07T13:25:53;8.40;;;3.35;;
35877;SDS011;21982;49.804;24.072;2023-09-07T13:28:21;6.28;;;3.03;;
35877;SDS011;21982;49.804;24.072;2023-09-07T13:30:48;6.57;;;3.15;;
35877;SDS011;21982;49.804;24.072;2023-09-07T13:33:14;7.65;;;3.05;;
35877;SDS011;21982;49.804;24.072;2023-09-07T13:35:40;6.53;;;3.47;;
35877;SDS011;21982;49.804;24.072;2023-09-07T13:38:05;6.50;;;3.17;;
35877;SDS011;21982;49.804;24.072;2023-09-07T13:40:31;7.43;;;3.75;;
35877;SDS011;21982;49.804;24.072;2023-09-07T13:42:56;11.40;;;2.67;;
35877;SDS011;21982;49.804;24.072;2023-09-07T13:45:22;8.25;;;3.30;;
35877;SDS011;21982;49.804;24.072;2023-09-07T13:47:48;5.90;;;3.25;;
35877;SDS011;21982;49.804;24.072;2023-09-07T13:50:15;6.18;;;2.90;;
35877;SDS011;21982;49.804;24.072;2023-09-07T13:52:40;6.03;;;3.00;;
35877;SDS011;21982;49.804;24.072;2023-09-07T13:55:06;7.15;;;2.47;;
35877;SDS011;21982;49.804;24.072;2023-09-07T13:57:34;7.07;;;2.42;;
35877;SDS011;21982;49.804;24.072;2023-09-07T14:00:00;6.35;;;3.40;;
35877;SDS011;21982;49.804;24.072;2023-09-07T14:02:26;6.18;;;2.38;;
35877;SDS011;21982;49.804;24.072;2023-09-07T14:04:51;8.63;;;3.47;;
35877;SDS011;21982;49.804;24.072;2023-09-07T14:07:16;6.93;;;3.72;;
35877;SDS011;21982;49.804;24.072;2023-09-07T14:09:43;5.97;;;2.83;;
35877;SDS011;21982;49.804;24.072;2023-09-07T14:12:09;7.07;;;2.92;;
35877;SDS011;21982;49.804;24.072;2023-09-07T14:14:34;6.50;;;3.20;;
35877;SDS011;21982;49.804;24.072;2023-09-07T14:17:00;8.25;;;2.90;;
35877;SDS011;21982;49.804;24.072;2023-09-07T14:19:26;7.07;;;2.80;;